createdAt,value
2022-10-31T00:01:21.992Z,5.10
2022-10-31T00:03:49.337Z,4.80
2022-10-31T00:06:19.273Z,4.30
2022-10-31T00:09:07.319Z,5.95
2022-10-31T00:11:34.686Z,5.00
2022-10-31T00:14:02.398Z,6.30
2022-10-31T00:16:30.107Z,6.97
2022-10-31T00:19:00.411Z,6.97
2022-10-31T00:21:28.484Z,5.70
2022-10-31T00:23:55.494Z,6.80
2022-10-31T00:26:22.588Z,6.53
2022-10-31T00:28:49.776Z,5.03
2022-10-31T00:31:16.773Z,4.63
2022-10-31T00:33:43.906Z,4.65
2022-10-31T00:36:17.629Z,4.30
2022-10-31T00:38:45.637Z,4.03
2022-10-31T00:41:14.386Z,3.60
2022-10-31T00:43:41.529Z,4.63
2022-10-31T00:46:08.528Z,4.80
2022-10-31T00:48:35.550Z,4.30
2022-10-31T00:51:02.496Z,4.10
2022-10-31T00:53:29.467Z,4.25
2022-10-31T00:55:56.446Z,4.72
2022-10-31T00:58:23.367Z,3.95
2022-10-31T01:00:56.369Z,3.88
2022-10-31T01:03:25.855Z,3.83
2022-10-31T01:06:19.185Z,4.15
2022-10-31T01:08:48.504Z,3.28
2022-10-31T01:11:21.468Z,3.83
2022-10-31T01:13:50.694Z,3.40
2022-10-31T01:16:20.006Z,3.42
2022-10-31T01:18:47.412Z,3.30
2022-10-31T01:21:17.476Z,3.47
2022-10-31T01:23:44.552Z,3.35
2022-10-31T01:26:20.681Z,4.10
2022-10-31T01:28:51.064Z,3.63
2022-10-31T01:31:19.804Z,4.40
2022-10-31T01:33:47.463Z,5.38
2022-10-31T01:36:26.339Z,5.10
2022-10-31T01:38:56.458Z,4.50
2022-10-31T01:41:27.812Z,6.30
2022-10-31T01:43:57.498Z,4.68
2022-10-31T01:46:58.381Z,5.07
2022-10-31T01:49:47.902Z,4.45
2022-10-31T01:52:39.479Z,5.15
2022-10-31T01:55:12.338Z,3.88
2022-10-31T01:57:43.378Z,3.75
2022-10-31T02:00:12.055Z,3.40
2022-10-31T02:02:39.724Z,3.47
2022-10-31T02:05:11.473Z,3.95
2022-10-31T02:07:43.839Z,3.60
2022-10-31T02:10:11.787Z,3.70
2022-10-31T02:12:39.332Z,3.65
2022-10-31T02:15:07.474Z,3.40
2022-10-31T02:17:34.997Z,4.20
2022-10-31T02:20:14.385Z,3.78
2022-10-31T02:23:18.400Z,4.03
2022-10-31T02:26:01.217Z,4.40
2022-10-31T02:28:34.150Z,4.50
2022-10-31T02:31:22.607Z,4.75
2022-10-31T02:33:59.067Z,4.55
2022-10-31T02:36:47.051Z,4.33
2022-10-31T02:39:22.904Z,4.22
2022-10-31T02:42:08.644Z,4.20
2022-10-31T02:44:47.375Z,4.05
2022-10-31T02:47:22.972Z,4.25
2022-10-31T02:50:00.751Z,4.70
2022-10-31T02:52:30.090Z,4.13
2022-10-31T02:54:57.198Z,4.40
2022-10-31T02:57:29.310Z,4.40
2022-10-31T03:00:01.699Z,5.32
2022-10-31T03:02:52.690Z,5.28
2022-10-31T03:05:57.996Z,4.03
2022-10-31T03:08:34.411Z,4.20
2022-10-31T03:11:04.841Z,4.15
2022-10-31T03:13:49.234Z,4.10
2022-10-31T03:16:28.805Z,4.43
2022-10-31T03:19:03.503Z,3.45
2022-10-31T03:21:37.719Z,3.73
2022-10-31T03:24:07.511Z,3.90
2022-10-31T03:26:38.129Z,4.20
2022-10-31T03:29:08.796Z,3.83
2022-10-31T03:31:58.848Z,4.10
2022-10-31T03:34:26.288Z,4.00
2022-10-31T03:36:57.124Z,3.50
2022-10-31T03:39:25.361Z,3.13
2022-10-31T03:42:01.213Z,3.70
2022-10-31T03:44:30.672Z,4.75
2022-10-31T03:46:58.475Z,3.10
2022-10-31T03:49:25.774Z,3.43
2022-10-31T03:51:52.666Z,3.70
2022-10-31T03:54:43.898Z,3.50
2022-10-31T03:57:20.144Z,3.43
2022-10-31T03:59:56.154Z,4.17
2022-10-31T04:02:30.457Z,3.60
2022-10-31T04:04:58.344Z,3.93
2022-10-31T04:07:31.030Z,4.18
2022-10-31T04:09:59.957Z,3.90
2022-10-31T04:12:28.597Z,3.90
2022-10-31T04:14:57.198Z,4.00
2022-10-31T04:17:28.468Z,4.20
2022-10-31T04:19:55.361Z,3.60
2022-10-31T04:22:22.420Z,3.80
2022-10-31T04:24:49.313Z,3.77
2022-10-31T04:27:16.252Z,3.27
2022-10-31T04:29:45.529Z,3.73
2022-10-31T04:32:15.459Z,3.70
2022-10-31T04:34:42.398Z,3.95
2022-10-31T04:37:09.374Z,3.73
2022-10-31T04:39:36.330Z,4.43
2022-10-31T04:42:03.258Z,4.00
2022-10-31T04:44:32.637Z,3.87
2022-10-31T04:46:59.579Z,3.80
2022-10-31T04:49:26.551Z,3.95
2022-10-31T04:51:53.436Z,3.70
2022-10-31T04:54:20.559Z,4.10
2022-10-31T04:56:47.459Z,3.77
2022-10-31T04:59:14.360Z,3.53
2022-10-31T05:01:41.539Z,3.33
2022-10-31T05:04:08.592Z,3.27
2022-10-31T05:06:35.549Z,3.73
2022-10-31T05:09:02.524Z,3.67
2022-10-31T05:11:29.432Z,3.90
2022-10-31T05:13:56.332Z,3.20
2022-10-31T05:16:23.355Z,3.23
2022-10-31T05:18:50.271Z,3.33
2022-10-31T05:21:17.202Z,3.60
2022-10-31T05:23:47.476Z,3.23
2022-10-31T05:26:15.868Z,3.43
2022-10-31T05:28:42.774Z,3.73
2022-10-31T05:31:09.744Z,7.30
2022-10-31T05:33:36.664Z,9.63
2022-10-31T05:36:03.917Z,8.37
2022-10-31T05:38:30.811Z,7.27
2022-10-31T05:41:03.899Z,5.37
2022-10-31T05:43:31.384Z,6.80
2022-10-31T05:45:58.531Z,5.87
2022-10-31T05:48:25.661Z,6.03
2022-10-31T05:50:53.251Z,5.27
2022-10-31T05:53:20.242Z,4.90
2022-10-31T05:55:47.659Z,5.53
2022-10-31T05:58:14.649Z,4.53
2022-10-31T06:00:41.623Z,4.13
2022-10-31T06:05:42.174Z,3.80
2022-10-31T06:08:09.139Z,3.40
2022-10-31T06:10:36.158Z,3.00
2022-10-31T06:13:03.194Z,4.93
2022-10-31T06:15:30.273Z,2.83
2022-10-31T06:18:02.546Z,3.60
2022-10-31T06:20:29.897Z,3.77
2022-10-31T06:22:57.024Z,5.90
2022-10-31T06:25:24.140Z,4.33
2022-10-31T06:27:51.267Z,3.87
2022-10-31T06:30:18.559Z,3.83
2022-10-31T06:32:45.649Z,4.07
2022-10-31T06:35:12.822Z,3.57
2022-10-31T06:37:40.102Z,3.50
2022-10-31T06:40:07.427Z,3.25
2022-10-31T06:42:34.617Z,4.03
2022-10-31T06:45:01.610Z,3.47
2022-10-31T06:47:28.532Z,3.83
2022-10-31T06:49:55.525Z,3.77
2022-10-31T06:52:24.424Z,3.40
2022-10-31T06:54:51.642Z,4.17
2022-10-31T06:57:18.628Z,4.80
2022-10-31T06:59:45.797Z,5.63
2022-10-31T07:02:12.941Z,3.70
2022-10-31T07:04:42.925Z,4.22
2022-10-31T07:07:10.161Z,4.37
2022-10-31T07:09:37.337Z,4.10
2022-10-31T07:12:04.471Z,4.00
2022-10-31T07:14:31.478Z,3.60
2022-10-31T07:16:58.438Z,3.60
2022-10-31T07:19:25.352Z,3.83
2022-10-31T07:21:52.310Z,3.92
2022-10-31T07:24:19.459Z,3.97
2022-10-31T07:26:48.494Z,4.67
2022-10-31T07:29:15.947Z,4.15
2022-10-31T07:31:45.169Z,5.32
2022-10-31T07:34:12.082Z,5.55
2022-10-31T07:36:39.092Z,6.03
2022-10-31T07:39:06.212Z,6.50
2022-10-31T07:41:33.228Z,6.43
2022-10-31T07:44:00.289Z,5.25
2022-10-31T07:46:27.226Z,6.15
2022-10-31T07:48:54.498Z,6.80
2022-10-31T07:51:21.414Z,5.28
2022-10-31T07:53:48.443Z,4.82
2022-10-31T07:56:15.332Z,4.97
2022-10-31T07:58:42.335Z,4.55
2022-10-31T08:01:09.482Z,6.70
2022-10-31T08:03:36.678Z,5.13
2022-10-31T08:06:03.863Z,5.47
2022-10-31T08:08:33.378Z,4.60
2022-10-31T08:11:03.129Z,4.88
2022-10-31T08:13:30.148Z,4.20
2022-10-31T08:16:04.365Z,5.38
2022-10-31T08:18:31.708Z,4.68
2022-10-31T08:20:58.775Z,4.53
2022-10-31T08:23:25.847Z,4.20
2022-10-31T08:25:52.875Z,4.03
2022-10-31T08:28:19.857Z,3.78
2022-10-31T08:30:48.430Z,6.93
2022-10-31T08:33:17.928Z,10.45
2022-10-31T08:35:45.559Z,10.38
2022-10-31T08:38:13.941Z,14.57
2022-10-31T08:40:40.987Z,5.45
2022-10-31T08:43:16.019Z,5.93
2022-10-31T08:45:44.111Z,5.22
2022-10-31T08:48:13.583Z,5.65
2022-10-31T08:50:41.469Z,4.85
2022-10-31T08:53:12.201Z,5.60
2022-10-31T08:55:40.407Z,6.25
2022-10-31T08:58:10.813Z,7.35
2022-10-31T09:00:38.308Z,9.45
2022-10-31T09:03:11.140Z,7.45
2022-10-31T09:05:38.197Z,7.00
2022-10-31T09:08:10.433Z,7.65
2022-10-31T09:10:40.345Z,7.65
2022-10-31T09:13:12.433Z,12.93
2022-10-31T09:15:41.640Z,15.30
2022-10-31T09:18:09.843Z,9.77
2022-10-31T09:20:38.364Z,11.32
2022-10-31T09:23:12.384Z,9.80
2022-10-31T09:25:40.208Z,7.10
2022-10-31T09:28:10.020Z,7.60
2022-10-31T09:30:37.681Z,8.73
2022-10-31T09:33:13.127Z,8.40
2022-10-31T09:35:40.976Z,9.48
2022-10-31T09:38:11.718Z,9.27
2022-10-31T09:40:53.920Z,11.23
2022-10-31T09:43:40.775Z,9.60
2022-10-31T09:46:07.664Z,10.35
2022-10-31T09:48:48.058Z,11.50
2022-10-31T09:51:53.169Z,10.10
2022-10-31T09:54:40.836Z,11.02
2022-10-31T09:57:14.712Z,10.52
2022-10-31T09:59:44.703Z,11.10
2022-10-31T10:02:21.937Z,9.63
2022-10-31T10:05:01.517Z,10.07
2022-10-31T10:07:50.466Z,9.63
2022-10-31T10:10:58.374Z,8.98
2022-10-31T10:13:37.427Z,8.27
2022-10-31T10:16:34.604Z,8.50
2022-10-31T10:19:23.126Z,8.68
2022-10-31T10:22:01.985Z,7.82
2022-10-31T10:24:53.416Z,8.32
2022-10-31T10:27:23.570Z,7.40
2022-10-31T10:30:03.230Z,7.43
2022-10-31T10:32:37.232Z,7.30
2022-10-31T10:35:26.979Z,6.68
2022-10-31T10:38:01.166Z,8.25
2022-10-31T10:40:29.678Z,7.85
2022-10-31T10:43:23.147Z,7.25
2022-10-31T10:46:39.447Z,7.68
2022-10-31T10:49:30.786Z,7.15
2022-10-31T10:52:19.278Z,8.40
2022-10-31T10:55:08.119Z,7.82
2022-10-31T10:57:42.773Z,6.97
2022-10-31T11:00:22.212Z,7.25
2022-10-31T11:02:50.107Z,6.60
2022-10-31T11:05:24.634Z,7.50
2022-10-31T11:07:52.027Z,7.60
2022-10-31T11:10:19.174Z,6.90
2022-10-31T11:13:01.922Z,6.93
2022-10-31T11:15:31.870Z,7.38
2022-10-31T11:17:59.171Z,6.90
2022-10-31T11:20:39.614Z,7.53
2022-10-31T11:23:19.325Z,6.53
2022-10-31T11:25:55.118Z,6.75
2022-10-31T11:28:22.381Z,6.80
2022-10-31T11:31:01.357Z,7.13
2022-10-31T11:33:35.342Z,7.03
2022-10-31T11:36:19.311Z,6.35
2022-10-31T11:38:46.844Z,6.88
2022-10-31T11:41:30.982Z,6.60
2022-10-31T11:44:04.509Z,8.68
2022-10-31T11:46:59.911Z,7.05
2022-10-31T11:49:42.218Z,6.25
2022-10-31T11:52:20.627Z,6.38
2022-10-31T11:55:00.768Z,6.90
2022-10-31T11:57:43.713Z,6.70
2022-10-31T12:00:33.576Z,6.72
2022-10-31T12:03:12.713Z,7.20
2022-10-31T12:05:42.340Z,7.28
2022-10-31T12:08:12.611Z,6.72
2022-10-31T12:10:48.906Z,8.27
2022-10-31T12:13:34.346Z,8.95
2022-10-31T12:16:19.325Z,6.93
2022-10-31T12:19:26.067Z,7.18
2022-10-31T12:22:14.232Z,6.88
2022-10-31T12:24:57.659Z,10.45
2022-10-31T12:27:33.482Z,78.70
2022-10-31T12:30:25.115Z,6.18
2022-10-31T12:33:05.159Z,6.53
2022-10-31T12:38:27.468Z,6.65
2022-10-31T12:41:04.213Z,7.35
2022-10-31T12:43:57.577Z,6.65
2022-10-31T12:46:42.645Z,6.78
2022-10-31T12:49:28.811Z,7.18
2022-10-31T12:52:08.827Z,7.05
2022-10-31T12:54:53.819Z,6.75
2022-10-31T12:57:33.418Z,6.05
2022-10-31T13:00:33.861Z,6.15
2022-10-31T13:03:25.045Z,6.72
2022-10-31T13:06:00.294Z,7.60
2022-10-31T13:08:55.536Z,6.80
2022-10-31T13:11:28.329Z,7.30
2022-10-31T13:14:07.655Z,6.72
2022-10-31T13:16:42.155Z,6.97
2022-10-31T13:19:30.718Z,8.90
2022-10-31T13:22:11.526Z,6.50
2022-10-31T13:24:41.787Z,6.68
2022-10-31T13:27:39.700Z,7.15
2022-10-31T13:30:16.484Z,7.43
2022-10-31T13:32:51.953Z,7.47
2022-10-31T13:35:30.519Z,9.75
2022-10-31T13:38:17.589Z,8.05
2022-10-31T13:40:50.489Z,6.88
2022-10-31T13:43:45.190Z,8.07
2022-10-31T13:46:45.819Z,7.25
2022-10-31T13:49:26.857Z,7.63
2022-10-31T13:51:54.168Z,6.95
2022-10-31T13:54:35.692Z,6.90
2022-10-31T13:57:02.771Z,12.82
2022-10-31T13:59:38.565Z,17.88
2022-10-31T14:02:17.084Z,7.55
2022-10-31T14:07:25.040Z,8.57
2022-10-31T14:10:01.678Z,10.15
2022-10-31T14:12:47.710Z,7.40
2022-10-31T14:15:17.231Z,8.95
2022-10-31T14:18:19.523Z,9.70
2022-10-31T14:20:46.975Z,7.25
2022-10-31T14:23:34.598Z,7.90
2022-10-31T14:26:20.332Z,8.00
2022-10-31T14:28:49.504Z,7.55
2022-10-31T14:31:47.451Z,8.45
2022-10-31T14:34:38.299Z,7.95
2022-10-31T14:38:00.033Z,7.05
2022-10-31T14:40:38.888Z,7.05
2022-10-31T14:43:35.230Z,7.45
2022-10-31T14:46:13.354Z,7.63
2022-10-31T14:48:43.344Z,24.40
2022-10-31T14:51:23.143Z,10.07
2022-10-31T14:53:53.525Z,32.75
2022-10-31T14:56:35.457Z,9.93
2022-10-31T14:59:08.224Z,7.88
2022-10-31T15:01:39.423Z,8.63
2022-10-31T15:04:29.568Z,8.43
2022-10-31T15:07:24.404Z,8.27
2022-10-31T15:10:24.650Z,10.05
2022-10-31T15:12:51.605Z,9.23
2022-10-31T15:15:23.036Z,8.98
2022-10-31T15:17:59.816Z,9.32
2022-10-31T15:20:29.970Z,8.90
2022-10-31T15:23:00.673Z,9.82
2022-10-31T15:25:34.617Z,10.02
2022-10-31T15:28:02.150Z,10.20
2022-10-31T15:30:30.622Z,13.27
2022-10-31T15:32:59.001Z,19.75
2022-10-31T15:35:29.804Z,14.63
2022-10-31T15:37:59.228Z,11.73
2022-10-31T15:40:27.825Z,12.15
2022-10-31T15:43:04.363Z,11.55
2022-10-31T15:45:32.481Z,11.45
2022-10-31T15:48:05.723Z,12.13
2022-10-31T15:50:38.578Z,14.02
2022-10-31T15:53:12.681Z,13.55
2022-10-31T15:55:57.709Z,19.58
2022-10-31T15:58:25.733Z,13.90
2022-10-31T16:01:06.919Z,13.07
2022-10-31T16:03:35.029Z,13.23
2022-10-31T16:06:06.710Z,12.23
2022-10-31T16:08:36.426Z,40.25
2022-10-31T16:11:24.548Z,11.07
2022-10-31T16:14:08.780Z,10.45
2022-10-31T16:16:43.495Z,11.52
2022-10-31T16:19:43.150Z,10.82
2022-10-31T16:22:13.430Z,12.68
2022-10-31T16:24:54.427Z,11.18
2022-10-31T16:27:26.743Z,11.02
2022-10-31T16:29:54.312Z,12.38
2022-10-31T16:32:37.877Z,11.52
2022-10-31T16:35:10.761Z,11.55
2022-10-31T16:37:41.689Z,12.25
2022-10-31T16:40:16.151Z,13.98
2022-10-31T16:42:44.338Z,12.05
2022-10-31T16:45:23.939Z,11.48
2022-10-31T16:47:51.828Z,11.38
2022-10-31T16:50:27.958Z,12.25
2022-10-31T16:55:58.372Z,11.40
2022-10-31T16:58:34.159Z,13.48
2022-10-31T17:01:07.067Z,11.88
2022-10-31T17:03:34.529Z,11.93
2022-10-31T17:06:01.578Z,13.30
2022-10-31T17:08:28.682Z,12.68
2022-10-31T17:10:57.412Z,14.98
2022-10-31T17:13:31.103Z,13.13
2022-10-31T17:16:00.613Z,12.85
2022-10-31T17:18:28.123Z,12.10
2022-10-31T17:21:00.386Z,11.52
2022-10-31T17:23:29.155Z,11.70
2022-10-31T17:25:56.704Z,12.27
2022-10-31T17:28:25.173Z,12.00
2022-10-31T17:30:53.865Z,13.02
2022-10-31T17:33:20.834Z,13.20
2022-10-31T17:35:47.817Z,14.25
2022-10-31T17:38:14.809Z,14.63
2022-10-31T17:40:45.317Z,15.30
2022-10-31T17:43:12.824Z,15.82
2022-10-31T17:45:41.333Z,15.80
2022-10-31T17:48:10.937Z,16.45
2022-10-31T17:50:37.910Z,15.93
2022-10-31T17:53:05.050Z,13.88
2022-10-31T17:55:36.272Z,14.75
2022-10-31T17:58:04.572Z,16.73
2022-10-31T18:00:31.777Z,15.38
2022-10-31T18:02:59.210Z,17.00
2022-10-31T18:05:26.412Z,14.88
2022-10-31T18:07:53.476Z,15.10
2022-10-31T18:10:20.528Z,15.88
2022-10-31T18:12:48.858Z,15.75
2022-10-31T18:15:17.286Z,15.55
2022-10-31T18:17:44.668Z,15.00
2022-10-31T18:20:12.031Z,15.85
2022-10-31T18:22:39.313Z,17.10
2022-10-31T18:25:06.697Z,17.20
2022-10-31T18:27:33.704Z,15.52
2022-10-31T18:30:00.621Z,15.27
2022-10-31T18:32:27.692Z,14.85
2022-10-31T18:34:54.610Z,15.48
2022-10-31T18:37:21.648Z,15.50
2022-10-31T18:39:48.577Z,15.30
2022-10-31T18:42:15.537Z,15.43
2022-10-31T18:44:42.479Z,17.23
2022-10-31T18:47:09.391Z,16.42
2022-10-31T18:49:36.733Z,17.38
2022-10-31T18:52:04.839Z,20.35
2022-10-31T18:54:31.882Z,21.92
2022-10-31T18:56:58.780Z,21.45
2022-10-31T18:59:25.874Z,20.15
2022-10-31T19:01:52.946Z,18.48
2022-10-31T19:04:20.004Z,17.52
2022-10-31T19:06:47.017Z,18.65
2022-10-31T19:09:14.051Z,18.80
2022-10-31T19:11:40.988Z,16.65
2022-10-31T19:14:11.214Z,15.63
2022-10-31T19:16:38.459Z,16.80
2022-10-31T19:19:05.502Z,17.10
2022-10-31T19:21:32.659Z,15.25
2022-10-31T19:24:00.512Z,16.45
2022-10-31T19:26:28.404Z,15.90
2022-10-31T19:28:57.011Z,15.05
2022-10-31T19:31:24.526Z,16.10
2022-10-31T19:33:53.017Z,17.25
2022-10-31T19:36:21.060Z,18.75
2022-10-31T19:38:50.490Z,19.90
2022-10-31T19:41:20.822Z,20.50
2022-10-31T19:43:48.351Z,21.63
2022-10-31T19:46:27.728Z,21.30
2022-10-31T19:49:01.193Z,18.92
2022-10-31T19:51:28.391Z,18.45
2022-10-31T19:53:55.717Z,18.67
2022-10-31T19:56:25.119Z,17.30
2022-10-31T19:58:52.234Z,17.17
2022-10-31T20:01:22.070Z,16.83
2022-10-31T20:03:49.847Z,17.90
2022-10-31T20:06:16.738Z,17.45
2022-10-31T20:08:43.785Z,17.25
2022-10-31T20:11:10.735Z,16.67
2022-10-31T20:13:37.869Z,20.33
2022-10-31T20:16:07.911Z,19.95
2022-10-31T20:18:35.980Z,19.55
2022-10-31T20:21:05.448Z,19.48
2022-10-31T20:23:32.874Z,19.65
2022-10-31T20:26:00.002Z,20.05
2022-10-31T20:28:27.650Z,20.35
2022-10-31T20:30:54.690Z,20.60
2022-10-31T20:33:21.680Z,18.80
2022-10-31T20:35:48.656Z,21.88
2022-10-31T20:38:16.105Z,21.70
2022-10-31T20:40:43.184Z,21.33
2022-10-31T20:43:11.999Z,21.90
2022-10-31T20:45:38.983Z,24.17
2022-10-31T20:48:06.081Z,25.30
2022-10-31T20:50:33.051Z,24.42
2022-10-31T20:53:00.377Z,25.50
2022-10-31T20:55:27.851Z,25.55
2022-10-31T20:57:54.757Z,24.75
2022-10-31T21:00:21.774Z,23.52
2022-10-31T21:02:49.512Z,22.48
2022-10-31T21:05:16.501Z,22.83
2022-10-31T21:07:43.403Z,20.92
2022-10-31T21:10:17.029Z,20.80
2022-10-31T21:12:45.296Z,21.02
2022-10-31T21:15:13.925Z,21.77
2022-10-31T21:17:41.971Z,21.63
2022-10-31T21:20:10.719Z,21.38
2022-10-31T21:22:38.191Z,21.20
2022-10-31T21:25:05.673Z,20.63
2022-10-31T21:27:32.699Z,20.75
2022-10-31T21:29:59.806Z,22.10
2022-10-31T21:32:26.918Z,21.75
2022-10-31T21:34:53.894Z,20.15
2022-10-31T21:37:20.855Z,20.75
2022-10-31T21:39:50.834Z,20.88
2022-10-31T21:42:21.371Z,20.02
2022-10-31T21:44:49.800Z,19.25
2022-10-31T21:47:17.155Z,20.15
2022-10-31T21:49:44.668Z,20.33
2022-10-31T21:52:12.288Z,21.38
2022-10-31T21:54:39.242Z,20.13
2022-10-31T21:57:07.345Z,20.85
2022-10-31T21:59:34.280Z,19.77
2022-10-31T22:02:01.659Z,21.10
2022-10-31T22:04:29.119Z,19.55
2022-10-31T22:06:56.114Z,20.02
2022-10-31T22:09:23.843Z,19.40
2022-10-31T22:11:51.030Z,18.80
2022-10-31T22:14:17.972Z,17.65
2022-10-31T22:16:45.020Z,17.88
2022-10-31T22:19:13.942Z,16.10
2022-10-31T22:21:43.769Z,16.70
2022-10-31T22:24:11.335Z,16.40
2022-10-31T22:26:39.089Z,15.85
2022-10-31T22:29:10.456Z,18.10
2022-10-31T22:31:43.194Z,16.42
2022-10-31T22:34:10.958Z,16.80
2022-10-31T22:36:38.501Z,15.98
2022-10-31T22:39:06.243Z,16.45
2022-10-31T22:41:35.579Z,13.82
2022-10-31T22:44:03.603Z,15.73
2022-10-31T22:46:33.368Z,15.38
2022-10-31T22:49:02.696Z,15.23
2022-10-31T22:51:35.720Z,14.55
2022-10-31T22:54:03.473Z,14.52
2022-10-31T22:56:33.067Z,14.95
2022-10-31T22:59:00.577Z,14.40
2022-10-31T23:01:29.994Z,14.50
2022-10-31T23:03:57.160Z,13.75
2022-10-31T23:06:26.313Z,14.40
2022-10-31T23:08:53.850Z,15.10
2022-10-31T23:11:22.160Z,14.68
2022-10-31T23:14:10.055Z,14.18
2022-10-31T23:17:04.312Z,14.55
2022-10-31T23:19:31.746Z,14.00
2022-10-31T23:22:02.284Z,14.25
2022-10-31T23:24:39.561Z,14.27
2022-10-31T23:27:12.295Z,13.38
2022-10-31T23:29:47.785Z,11.88
2022-10-31T23:32:21.014Z,10.75
2022-10-31T23:34:50.392Z,11.05
2022-10-31T23:37:18.997Z,10.30
2022-10-31T23:39:46.101Z,9.77
2022-10-31T23:42:16.455Z,11.30
2022-10-31T23:44:43.576Z,10.18
2022-10-31T23:47:10.941Z,9.98
2022-10-31T23:49:37.945Z,9.45
2022-10-31T23:52:05.858Z,10.88
2022-10-31T23:54:33.470Z,11.82
2022-10-31T23:57:00.780Z,11.70
2022-10-31T23:59:29.203Z,10.75
